Time;durP1;ratioP1;P1;durP2;ratioP2;P2;SDS_P1;SDS_P2;PMS_P1;PMS_P2;Temp;Humidity;BMP_temperature;BMP_pressure;BME280_temperature;BME280_humidity;BME280_pressure;Samples;Min_cycle;Max_cycle;Signal;HPM_P1;HPM_P2
2022/11/22 00:00:51;;;;;;;10.05;1.67;;;7.20;99.90;;;6.37;100.00;99435.16;4217850;28;20020;-78
2022/11/22 00:02:52;;;;;;;8.57;2.03;;;7.20;99.90;;;6.32;100.00;99437.44;4218878;28;20027;-77
2022/11/22 00:04:52;;;;;;;8.88;1.45;;;7.20;99.90;;;6.44;100.00;99436.16;4218695;28;20046;-77
2022/11/22 00:06:53;;;;;;;6.63;2.10;;;7.30;99.90;;;6.54;100.00;99431.56;4218723;28;20032;-78
2022/11/22 00:08:54;;;;;;;7.40;1.30;;;7.30;99.90;;;6.48;100.00;99426.19;4217384;28;20538;-77
2022/11/22 00:10:55;;;;;;;6.25;1.30;;;7.30;99.90;;;6.46;100.00;99417.66;4218922;28;20020;-78
2022/11/22 00:12:56;;;;;;;5.78;1.27;;;7.30;99.90;;;6.37;100.00;99413.38;4217139;28;20032;-78
2022/11/22 00:14:57;;;;;;;9.80;1.80;;;7.30;99.90;;;6.41;100.00;99420.78;4217120;28;20495;-77
2022/11/22 00:16:58;;;;;;;5.82;1.85;;;7.30;99.90;;;6.56;100.00;99419.16;4251726;27;20019;-77
2022/11/22 00:18:59;;;;;;;5.75;1.23;;;7.30;99.90;;;6.63;100.00;99414.09;4216703;28;20385;-78
2022/11/22 00:21:07;;;;;;;6.82;1.25;;;7.40;99.90;;;6.58;100.00;99417.19;4250872;27;20071;-78
2022/11/22 00:23:07;;;;;;;8.32;1.73;;;7.40;99.90;;;6.65;100.00;99418.19;4200464;28;20028;-78
2022/11/22 00:25:08;;;;;;;7.38;1.23;;;7.50;99.90;;;6.61;100.00;99408.16;4218633;28;20557;-78
2022/11/22 00:27:09;;;;;;;7.65;1.23;;;7.50;99.90;;;6.63;100.00;99404.41;4234227;28;20023;-78
2022/11/22 00:29:12;;;;;;;6.85;1.80;;;7.50;99.90;;;6.55;100.00;99408.81;4218380;28;20032;-78
2022/11/22 00:31:13;;;;;;;5.63;1.27;;;7.50;99.90;;;6.66;100.00;99409.31;4250597;27;20027;-78
2022/11/22 00:33:14;;;;;;;7.43;1.40;;;7.50;99.90;;;6.67;100.00;99405.72;4218624;28;20028;-77
2022/11/22 00:35:15;;;;;;;4.28;1.15;;;7.50;99.90;;;6.67;100.00;99421.44;4251206;28;20084;-78
2022/11/22 00:37:16;;;;;;;8.70;1.30;;;7.50;99.90;;;6.82;100.00;99423.41;4218800;28;20021;-78
2022/11/22 00:39:17;;;;;;;12.07;1.35;;;7.60;99.90;;;6.88;100.00;99417.50;4218373;28;20026;-78
2022/11/22 00:41:18;;;;;;;4.93;0.95;;;7.60;99.90;;;6.99;100.00;99422.44;4218714;28;20024;-78
2022/11/22 00:43:18;;;;;;;6.47;1.20;;;7.70;99.90;;;6.86;100.00;99424.72;4251328;28;20024;-78
2022/11/22 00:45:19;;;;;;;7.57;1.52;;;7.70;99.90;;;6.90;100.00;99423.41;4218239;28;20568;-77
2022/11/22 00:47:20;;;;;;;7.10;1.30;;;7.70;99.90;;;6.82;100.00;99421.59;4218265;28;20093;-78
2022/11/22 00:49:21;;;;;;;8.38;1.48;;;7.70;99.90;;;6.94;100.00;99419.47;4251544;28;20015;-78
2022/11/22 00:51:22;;;;;;;8.00;2.13;;;7.70;99.90;;;6.87;100.00;99418.50;4217219;28;20028;-78
2022/11/22 00:53:23;;;;;;;7.25;1.60;;;7.70;99.90;;;6.76;100.00;99424.06;4251260;28;20064;-78
2022/11/22 00:55:24;;;;;;;5.57;1.30;;;7.70;99.90;;;6.78;100.00;99416.88;4216866;28;20101;-78
2022/11/22 00:57:25;;;;;;;10.52;1.58;;;7.60;99.90;;;6.77;100.00;99423.09;4218389;28;20024;-78
2022/11/22 00:59:26;;;;;;;5.07;1.17;;;7.60;99.90;;;6.90;100.00;99433.91;4250872;28;20398;-78
2022/11/22 01:01:27;;;;;;;8.52;1.77;;;7.70;99.90;;;6.81;100.00;99438.31;4251023;28;20026;-78
2022/11/22 01:03:28;;;;;;;8.82;1.80;;;7.70;99.90;;;6.85;100.00;99438.81;4217244;28;20021;-78
2022/11/22 01:05:29;;;;;;;9.27;1.80;;;7.70;99.90;;;6.78;100.00;99427.34;4218318;28;20039;-78
2022/11/22 01:07:29;;;;;;;10.75;1.90;;;7.60;99.90;;;6.69;100.00;99429.13;4251030;28;20039;-78
2022/11/22 01:09:30;;;;;;;12.35;3.25;;;7.60;99.90;;;6.50;100.00;99427.66;4218245;28;20107;-78
2022/11/22 01:11:31;;;;;;;9.50;2.10;;;7.50;99.90;;;6.57;100.00;99440.94;4217046;28;20035;-78
2022/11/22 01:13:33;;;;;;;12.45;1.65;;;7.40;99.90;;;6.66;100.00;99437.31;4217896;28;20395;-78
2022/11/22 01:15:34;;;;;;;7.07;2.20;;;7.50;99.90;;;6.62;100.00;99438.63;4251005;28;20023;-78
2022/11/22 01:17:35;;;;;;;9.50;2.08;;;7.50;99.90;;;6.84;100.00;99437.19;4251009;28;20121;-78
2022/11/22 01:19:36;;;;;;;10.35;1.67;;;7.50;99.90;;;6.71;100.00;99424.56;4216061;28;20520;-78
2022/11/22 01:21:37;;;;;;;9.60;1.40;;;7.60;99.90;;;6.60;100.00;99432.75;4217988;28;20051;-78
2022/11/22 01:23:38;;;;;;;8.15;2.40;;;7.50;99.90;;;6.63;100.00;99432.44;4250949;28;20514;-78
2022/11/22 01:25:43;;;;;;;10.23;2.20;;;7.50;99.90;;;6.73;100.00;99424.38;4216884;28;20058;-78
2022/11/22 01:27:44;;;;;;;7.22;1.75;;;7.50;99.90;;;6.78;100.00;99436.00;4250643;28;20023;-78
2022/11/22 01:29:45;;;;;;;6.18;1.52;;;7.60;99.90;;;6.86;100.00;99424.72;4251461;27;20084;-78
2022/11/22 01:31:46;;;;;;;10.77;1.63;;;7.60;99.90;;;6.88;100.00;99422.75;4220130;28;20043;-77
2022/11/22 01:33:46;;;;;;;7.63;1.60;;;7.70;99.90;;;6.91;100.00;99430.28;4221283;28;20031;-77
2022/11/22 01:35:47;;;;;;;7.60;1.65;;;7.70;99.90;;;6.91;100.00;99427.66;4219768;28;20090;-77
2022/11/22 01:37:48;;;;;;;5.72;1.45;;;7.70;99.90;;;6.88;100.00;99433.22;4253728;27;20094;-77
2022/11/22 01:39:49;;;;;;;9.35;2.60;;;7.80;99.90;;;6.94;100.00;99436.03;4221470;28;20035;-78
2022/11/22 01:41:50;;;;;;;15.15;1.70;;;7.80;99.90;;;7.03;100.00;99437.66;4221335;28;20024;-78
2022/11/22 01:43:51;;;;;;;8.25;1.67;;;7.90;99.90;;;7.12;100.00;99433.22;4220884;28;20028;-78
2022/11/22 01:46:36;;;;;;;7.05;1.67;;;8.00;99.90;;;7.21;100.00;99447.97;4220330;28;20514;-78
2022/11/22 01:48:45;;;;;;;12.57;2.33;;;8.10;99.90;;;7.17;100.00;99441.41;4213206;28;20051;-78
2022/11/22 01:50:52;;;;;;;9.07;2.35;;;8.10;99.90;;;7.04;100.00;99428.81;4219466;28;20422;-77
2022/11/22 01:52:56;;;;;;;12.60;2.10;;;8.00;99.90;;;7.08;100.00;99429.28;4253263;27;20053;-78
2022/11/22 01:55:07;;;;;;;;;;;8.00;99.90;;;7.02;100.00;99435.19;4253727;27;20027;-78
2022/11/22 01:57:15;;;;;;;11.60;2.58;;;8.00;99.90;;;6.99;100.00;99423.22;4219600;28;19979;-78
2022/11/22 01:59:21;;;;;;;12.35;3.00;;;8.00;99.90;;;6.99;100.00;99417.19;4253057;27;20476;-77
2022/11/22 02:01:22;;;;;;;11.77;2.08;;;7.90;99.90;;;6.95;100.00;99429.81;4236100;28;20115;-78
2022/11/22 02:03:25;;;;;;;10.23;2.33;;;7.90;99.90;;;6.91;100.00;99425.03;4253491;27;20030;-78
2022/11/22 02:05:31;;;;;;;11.50;2.58;;;7.80;99.90;;;6.85;100.00;99423.91;4220550;28;20048;-77
2022/11/22 02:08:01;;;;;;;8.05;1.25;;;7.80;99.90;;;6.73;100.00;99429.63;4253189;27;20027;-77
2022/11/22 02:10:02;;;;;;;10.23;2.40;;;7.70;99.90;;;6.64;100.00;99427.00;4249551;27;20024;-77
2022/11/22 02:12:05;;;;;;;9.45;2.50;;;7.60;99.90;;;6.61;100.00;99427.34;4218905;28;20114;-77
2022/11/22 02:14:08;;;;;;;8.52;2.10;;;7.60;99.90;;;6.55;100.00;99422.75;4219040;28;20024;-78
2022/11/22 02:16:10;;;;;;;10.02;2.95;;;7.50;99.90;;;6.49;100.00;99418.16;4253182;27;20032;-77
2022/11/22 02:18:11;;;;;;;11.85;2.38;;;7.40;99.90;;;6.51;100.00;99424.03;4252275;27;20019;-77
2022/11/22 02:20:12;;;;;;;14.05;2.70;;;7.40;99.90;;;6.48;100.00;99420.94;4219151;28;20406;-77
2022/11/22 02:22:39;;;;;;;9.88;2.05;;;7.40;99.90;;;6.46;100.00;99423.72;4252995;27;20112;-78
2022/11/22 02:25:02;;;;;;;11.00;1.75;;;7.40;99.90;;;6.50;100.00;99417.19;4220685;28;20034;-77
2022/11/22 02:27:03;;;;;;;12.13;2.13;;;7.40;99.90;;;6.40;100.00;99429.59;4249201;27;20030;-77
2022/11/22 02:29:06;;;;;;;8.07;1.95;;;7.40;99.90;;;6.40;100.00;99432.22;4253112;27;20427;-78
2022/11/22 02:31:07;;;;;;;8.05;1.67;;;7.30;99.90;;;6.37;100.00;99432.53;4220368;28;20035;-77
2022/11/22 02:33:08;;;;;;;14.52;2.67;;;7.30;99.90;;;6.37;100.00;99435.16;4253295;27;20027;-77
2022/11/22 02:35:25;;;;;;;13.27;2.20;;;7.30;99.90;;;6.48;100.00;99436.66;4219092;28;20028;-78
2022/11/22 02:37:31;;;;;;;16.23;2.80;;;7.30;99.90;;;6.73;100.00;99424.38;4220248;28;20049;-78
2022/11/22 02:39:32;;;;;;;10.88;2.40;;;7.40;99.90;;;6.69;100.00;99427.31;4252250;27;20049;-77
2022/11/22 02:41:34;;;;;;;8.38;1.65;;;7.50;99.90;;;6.85;100.00;99428.31;4252420;27;20031;-77
2022/11/22 02:43:46;;;;;;;12.27;1.90;;;7.60;99.90;;;6.75;100.00;99427.69;4235804;28;20047;-77
2022/11/22 02:45:47;;;;;;;14.13;2.60;;;7.60;99.90;;;6.78;100.00;99427.34;4219884;28;20028;-78
2022/11/22 02:47:48;;;;;;;9.57;2.85;;;7.60;99.90;;;6.85;100.00;99444.03;4252995;27;20023;-77
2022/11/22 02:49:51;;;;;;;10.63;2.83;;;7.70;99.90;;;6.97;100.00;99447.97;4218853;28;20053;-77
2022/11/22 02:51:53;;;;;;;8.30;2.20;;;7.70;99.90;;;7.19;100.00;99453.38;4252656;27;20105;-77
2022/11/22 02:53:55;;;;;;;11.18;2.60;;;7.90;99.90;;;7.47;100.00;99445.94;4219832;28;20032;-78
2022/11/22 02:55:56;;;;;;;10.93;3.13;;;8.10;99.90;;;7.37;100.00;99444.50;4220595;28;20028;-77
2022/11/22 02:57:57;;;;;;;16.80;2.80;;;8.20;99.90;;;7.44;100.00;99448.91;4220105;28;20035;-78
2022/11/22 02:59:58;;;;;;;16.67;3.75;;;8.20;99.90;;;7.30;100.00;99444.34;4252516;27;20046;-78
2022/11/22 03:01:59;;;;;;;11.82;1.92;;;8.20;99.90;;;7.34;100.00;99448.28;4219724;28;20024;-78
2022/11/22 03:04:00;;;;;;;12.90;2.85;;;8.20;99.90;;;7.33;100.00;99462.38;4219838;28;20028;-78
2022/11/22 03:06:01;;;;;;;7.30;1.77;;;8.20;99.90;;;7.20;100.00;99448.94;4219754;28;20024;-78
2022/11/22 03:08:02;;;;;;;11.82;2.17;;;8.20;99.90;;;7.19;100.00;99444.69;4219706;28;20032;-78
2022/11/22 03:10:03;;;;;;;13.63;2.35;;;8.10;99.90;;;7.14;100.00;99449.59;4219504;28;20089;-78
2022/11/22 03:12:04;;;;;;;7.68;2.00;;;8.00;99.90;;;7.31;100.00;99453.03;4218470;28;20116;-78
2022/11/22 03:14:05;;;;;;;12.27;1.80;;;8.10;99.90;;;7.29;100.00;99447.94;4218195;28;20059;-78
2022/11/22 03:16:07;;;;;;;14.98;2.85;;;8.10;99.90;;;7.19;100.00;99453.38;4218432;28;20035;-78
2022/11/22 03:18:08;;;;;;;9.60;2.17;;;8.10;99.90;;;7.20;100.00;99455.00;4251309;27;20023;-78
2022/11/22 03:20:09;;;;;;;7.68;1.92;;;8.10;99.90;;;7.08;100.00;99460.75;4219512;28;20020;-77
2022/11/22 03:22:09;;;;;;;15.25;2.58;;;8.10;99.90;;;7.10;100.00;99451.75;4219039;28;20040;-77
2022/11/22 03:24:11;;;;;;;12.63;2.92;;;8.00;99.90;;;7.17;100.00;99465.81;4218212;28;20028;-78
2022/11/22 03:26:12;;;;;;;10.68;1.98;;;8.00;99.90;;;7.24;100.00;99458.13;4252065;27;20105;-78
2022/11/22 03:28:13;;;;;;;13.60;3.22;;;8.00;99.90;;;7.23;100.00;99461.72;4252131;27;20021;-77
2022/11/22 03:30:14;;;;;;;15.90;2.30;;;8.10;99.90;;;7.27;100.00;99457.78;4219214;28;20024;-78
2022/11/22 03:32:15;;;;;;;15.38;3.03;;;8.10;99.90;;;7.17;100.00;99467.63;4252064;27;20054;-77
2022/11/22 03:34:16;;;;;;;15.60;3.15;;;8.10;99.90;;;7.06;100.00;99463.53;4218028;28;20035;-78
2022/11/22 03:36:17;;;;;;;11.15;2.88;;;8.00;99.90;;;7.14;100.00;99458.28;4219049;28;20030;-77
2022/11/22 03:38:18;;;;;;;11.15;2.70;;;8.00;99.90;;;7.19;100.00;99458.63;4234662;28;20031;-78
2022/11/22 03:40:19;;;;;;;10.95;1.98;;;8.10;99.90;;;7.29;100.00;99463.66;4219170;28;20035;-78
2022/11/22 03:42:20;;;;;;;10.13;1.67;;;8.10;99.90;;;7.35;100.00;99464.84;4217819;28;20034;-78
2022/11/22 03:44:22;;;;;;;11.27;1.80;;;8.10;99.90;;;7.50;100.00;99458.72;4234577;28;20098;-78
2022/11/22 03:46:23;;;;;;;8.90;1.90;;;8.20;99.90;;;7.39;100.00;99456.47;4218200;28;20028;-78
2022/11/22 03:48:24;;;;;;;7.43;1.70;;;8.30;99.90;;;7.37;100.00;99466.31;4219127;28;20031;-78
2022/11/22 03:50:25;;;;;;;7.75;1.33;;;8.20;99.90;;;7.38;100.00;99452.19;4251728;27;20038;-77
2022/11/22 03:52:26;;;;;;;11.00;1.90;;;8.20;99.90;;;7.65;100.00;99458.84;4251593;27;20417;-78
2022/11/22 03:54:26;;;;;;;8.30;2.15;;;8.30;99.90;;;7.48;100.00;99457.25;4219086;28;20028;-78
2022/11/22 03:56:27;;;;;;;13.90;1.88;;;8.40;99.90;;;7.56;100.00;99458.03;4251604;27;20035;-78
2022/11/22 03:58:28;;;;;;;9.77;2.05;;;8.40;99.90;;;7.54;100.00;99462.66;4218754;28;20082;-77
2022/11/22 04:00:30;;;;;;;8.27;2.35;;;8.40;99.90;;;7.56;100.00;99452.81;4251451;27;20106;-78
2022/11/22 04:02:31;;;;;;;15.95;2.10;;;8.40;99.90;;;7.65;100.00;99458.84;4251765;27;20031;-78
2022/11/22 04:04:32;;;;;;;12.70;2.40;;;8.50;99.90;;;7.81;100.00;99458.81;4219066;28;20027;-78
2022/11/22 04:06:33;;;;;;;10.27;2.00;;;8.50;99.90;;;7.63;100.00;99466.91;4251520;27;20460;-77
2022/11/22 04:08:34;;;;;;;9.68;2.00;;;8.50;99.90;;;7.47;100.00;99451.19;4218515;28;20020;-78
2022/11/22 04:10:35;;;;;;;13.35;2.85;;;8.40;99.90;;;7.42;100.00;99453.50;4218810;28;20104;-78
2022/11/22 04:12:35;;;;;;;11.68;1.92;;;8.30;99.90;;;7.46;100.00;99443.50;4234284;28;20032;-78
2022/11/22 04:16:56;;;;;;;11.23;3.03;;;8.30;99.90;;;7.12;100.00;99436.66;4218603;28;20086;-78
2022/11/22 04:18:57;;;;;;;9.32;2.83;;;8.10;99.90;;;7.21;100.00;99448.78;4217848;28;20032;-78
2022/11/22 04:23:21;;;;;;;12.73;2.30;;;8.10;99.90;;;7.07;100.00;99464.38;4246286;27;20068;-77
2022/11/22 04:25:24;;;;;;;11.00;2.17;;;8.00;99.90;;;7.06;100.00;99463.53;4218980;28;20024;-77
2022/11/22 04:27:25;;;;;;;11.75;2.25;;;8.00;99.90;;;7.05;100.00;99459.28;4218829;28;20039;-78
2022/11/22 04:29:26;;;;;;;9.10;1.77;;;7.90;99.90;;;6.97;100.00;99461.09;4251096;27;20023;-77
2022/11/22 04:33:46;;;;;;;11.07;1.85;;;7.90;99.90;;;7.17;100.00;99465.00;4246603;27;20455;-78
2022/11/22 04:35:48;;;;;;;7.55;2.15;;;8.00;99.90;;;7.16;100.00;99463.38;4218440;28;20028;-78
2022/11/22 04:37:50;;;;;;;10.65;1.75;;;8.00;99.90;;;7.33;100.00;99458.91;4250979;28;20077;-78
2022/11/22 04:39:51;;;;;;;8.25;1.88;;;8.10;99.90;;;7.31;100.00;99463.53;4234105;28;20020;-78
2022/11/22 04:46:33;;;;;;;6.90;2.53;;;8.20;99.90;;;7.53;100.00;99476.75;4218502;28;20034;-77
2022/11/22 04:48:35;;;;;;;10.52;1.20;;;8.30;99.90;;;7.48;100.00;99479.06;4251633;28;20035;-78
2022/11/22 04:52:56;;;;;;;7.97;2.00;;;8.40;99.90;;;7.59;100.00;99472.63;4218485;28;20066;-78
2022/11/22 04:54:57;;;;;;;9.35;2.83;;;8.40;99.90;;;7.47;100.00;99485.28;4218321;28;20494;-78
2022/11/22 04:56:58;;;;;;;11.27;2.00;;;8.30;99.90;;;7.66;100.00;99476.25;4218286;28;20024;-78
2022/11/22 04:58:58;;;;;;;11.38;2.45;;;8.40;99.90;;;7.50;100.00;99471.00;4218227;28;20024;-78
2022/11/22 05:00:59;;;;;;;7.32;1.65;;;8.40;99.90;;;7.62;100.00;99474.94;4218357;28;20024;-78
2022/11/22 05:03:00;;;;;;;9.20;1.23;;;8.40;99.90;;;7.61;100.00;99462.81;4217061;28;20475;-78
2022/11/22 05:05:01;;;;;;;9.60;1.73;;;8.40;99.90;;;7.51;100.00;99465.63;4252488;27;20027;-77
2022/11/22 05:07:02;;;;;;;10.18;2.00;;;8.40;99.90;;;7.40;100.00;99463.34;4221484;28;20020;-78
2022/11/22 05:09:03;;;;;;;8.05;1.50;;;8.30;99.90;;;7.43;100.00;99473.50;4221718;28;20020;-77
2022/11/22 05:11:04;;;;;;;9.35;1.30;;;8.30;99.90;;;7.41;100.00;99462.34;4237157;28;20062;-77
2022/11/22 05:13:05;;;;;;;10.23;1.42;;;8.30;99.90;;;7.37;100.00;99471.56;4221507;28;20479;-78
2022/11/22 05:15:07;;;;;;;7.80;1.38;;;8.20;99.90;;;7.42;100.00;99458.75;4253844;27;20505;-78
2022/11/22 05:17:08;;;;;;;10.27;1.80;;;8.20;99.90;;;7.37;100.00;99465.47;4254218;27;20102;-77
2022/11/22 05:19:09;;;;;;;9.02;1.70;;;8.20;99.90;;;7.40;100.00;99473.84;4220405;28;20028;-77
2022/11/22 05:21:13;;;;;;;8.50;1.42;;;8.30;99.90;;;7.41;100.00;99464.97;4254014;27;20048;-77
2022/11/22 05:25:34;;;;;;;9.02;2.40;;;8.30;99.90;;;7.30;100.00;99464.50;4249219;27;20034;-77
2022/11/22 05:27:34;;;;;;;6.43;2.10;;;8.20;99.90;;;7.34;100.00;99469.25;4221527;28;20020;-77
2022/11/22 05:29:35;;;;;;;6.63;1.77;;;8.20;99.90;;;7.30;100.00;99470.56;4253741;27;20023;-77
2022/11/22 05:31:38;;;;;;;5.35;1.10;;;8.20;99.90;;;7.47;100.00;99472.16;4221573;28;20028;-77
2022/11/22 05:33:42;;;;;;;8.13;2.90;;;8.20;99.90;;;7.59;100.00;99476.09;4254240;27;20098;-77
2022/11/22 05:35:42;;;;;;;7.85;1.63;;;8.30;99.90;;;7.69;100.00;99479.34;4221167;28;20455;-78
2022/11/22 05:37:43;;;;;;;11.80;2.95;;;8.40;99.90;;;7.66;100.00;99471.81;4221056;28;20016;-77
2022/11/22 05:39:44;;;;;;;6.72;1.33;;;8.50;99.90;;;7.51;100.00;99470.03;4221386;28;20024;-77
2022/11/22 05:41:54;;;;;;;14.23;2.22;;;8.40;99.90;;;7.40;100.00;99471.22;4221407;28;20028;-78
2022/11/22 05:43:56;;;;;;;9.85;1.92;;;8.30;99.90;;;7.46;100.00;99485.47;4251466;27;20019;-78
2022/11/22 05:46:18;;;;;;;8.93;2.17;;;8.30;99.90;;;7.61;100.00;99479.38;4253509;27;20149;-77
2022/11/22 05:48:19;;;;;;;12.95;2.70;;;8.30;99.90;;;7.57;100.00;99475.44;4221131;28;20032;-77
2022/11/22 05:50:20;;;;;;;8.93;1.70;;;8.40;99.90;;;7.56;100.00;99494.78;4221077;28;20020;-77
2022/11/22 05:52:20;;;;;;;11.23;1.42;;;8.40;99.90;;;7.57;100.00;99493.81;4220984;28;20051;-77
2022/11/22 05:54:21;;;;;;;8.63;1.85;;;8.40;99.90;;;7.44;100.00;99498.75;4221009;28;20031;-78
2022/11/22 05:56:23;;;;;;;7.65;1.77;;;8.30;99.90;;;7.50;100.00;99508.56;4253595;27;20045;-77
2022/11/22 05:58:24;;;;;;;10.43;2.17;;;8.30;99.90;;;7.49;100.00;99504.34;4220751;28;20024;-77
2022/11/22 06:00:25;;;;;;;7.32;1.33;;;8.30;99.90;;;7.43;100.00;99504.16;4220728;28;20024;-77
2022/11/22 06:02:26;;;;;;;11.20;1.80;;;8.30;99.90;;;7.61;100.00;99492.50;4220545;28;20050;-77
2022/11/22 06:04:27;;;;;;;16.80;3.60;;;8.30;99.90;;;7.61;100.00;99492.50;4253565;27;20027;-78
2022/11/22 06:06:27;;;;;;;13.35;2.00;;;8.40;99.90;;;7.49;100.00;99482.50;4220863;28;20024;-77
2022/11/22 06:08:31;;;;;;;12.00;2.22;;;8.40;99.90;;;7.56;100.00;99480.84;4219204;28;20061;-77
2022/11/22 06:10:36;;;;;;;8.48;2.05;;;8.40;99.90;;;7.39;100.00;99495.81;4219757;28;20414;-77
2022/11/22 06:12:36;;;;;;;;;;;8.30;99.90;;;7.48;100.00;99494.81;4221204;28;20039;-77
2022/11/22 06:14:37;;;;;;;9.15;1.65;;;8.40;99.90;;;7.51;100.00;99493.66;4220551;28;20291;-77
2022/11/22 06:16:38;;;;;;;9.95;1.80;;;8.40;99.90;;;7.43;100.00;99502.38;4219213;28;20522;-78
2022/11/22 06:18:39;;;;;;;9.20;2.33;;;8.30;99.90;;;7.32;100.00;99507.13;4219770;28;20024;-77
2022/11/22 06:20:40;;;;;;;10.15;1.75;;;8.20;99.90;;;7.29;100.00;99504.84;4253189;27;20130;-78
2022/11/22 06:22:41;;;;;;;9.93;2.03;;;8.20;99.90;;;7.32;100.00;99513.19;4219431;28;20040;-77
2022/11/22 06:24:41;;;;;;;7.63;1.30;;;8.20;99.90;;;7.32;100.00;99505.31;4220334;28;20027;-78
2022/11/22 06:26:43;;;;;;;8.52;2.30;;;8.20;99.90;;;7.36;100.00;99498.75;4253384;27;20027;-78
2022/11/22 06:28:45;;;;;;;10.80;2.55;;;8.20;99.90;;;7.53;100.00;99503.00;4252924;27;20019;-77
2022/11/22 06:30:46;;;;;;;6.50;1.52;;;8.20;99.90;;;7.56;100.00;99507.91;4220148;28;20023;-78
2022/11/22 06:32:47;;;;;;;6.18;1.20;;;8.30;99.90;;;7.51;100.00;99504.97;4220264;28;20077;-77
2022/11/22 06:34:48;;;;;;;3.22;1.33;;;8.30;99.90;;;7.50;100.00;99511.19;4220578;28;20077;-77
2022/11/22 06:36:49;;;;;;;11.93;2.60;;;8.40;99.90;;;7.45;100.00;99503.00;4220323;28;20032;-77
2022/11/22 06:38:51;;;;;;;6.30;1.13;;;8.30;99.90;;;7.51;100.00;99504.97;4220207;28;20473;-77
2022/11/22 06:40:52;;;;;;;9.30;1.65;;;8.30;99.90;;;7.48;100.00;99514.97;4252999;27;20031;-77
2022/11/22 06:42:52;;;;;;;8.93;1.42;;;8.30;99.90;;;7.47;100.00;99510.69;4220115;28;20020;-78
2022/11/22 06:44:53;;;;;;;10.15;1.67;;;8.30;99.90;;;7.35;100.00;99515.47;4252527;27;20023;-78
2022/11/22 06:46:54;;;;;;;8.00;1.40;;;8.30;99.90;;;7.43;100.00;99523.34;4219199;28;20020;-77
2022/11/22 06:48:55;;;;;;;8.48;1.38;;;8.30;99.90;;;7.39;100.00;99521.22;4251770;27;20023;-78
2022/11/22 06:51:08;;;;;;;6.18;0.90;;;8.20;99.90;;;7.42;100.00;99526.13;4213504;28;20491;-78
2022/11/22 06:53:09;;;;;;;8.95;1.33;;;8.20;99.90;;;7.68;100.00;99522.31;4225813;28;20055;-78
2022/11/22 06:55:10;;;;;;;6.07;1.23;;;8.30;99.90;;;7.69;100.00;99515.28;4219823;28;20035;-77
2022/11/22 06:57:14;;;;;;;7.70;1.45;;;8.40;99.90;;;7.66;100.00;99520.84;4218451;28;20028;-78
2022/11/22 06:59:14;;;;;;;5.03;1.15;;;8.50;99.90;;;7.66;100.00;99524.31;4235250;28;20070;-78
2022/11/22 07:01:20;;;;;;;9.25;1.27;;;8.50;99.90;;;7.76;100.00;99524.91;4220057;28;20025;-78
2022/11/22 07:03:21;;;;;;;7.90;1.73;;;8.50;99.90;;;7.61;100.00;99529.25;4219567;28;20133;-78
2022/11/22 07:05:22;;;;;;;6.00;1.40;;;8.50;99.90;;;7.53;100.00;99525.78;4219341;28;20036;-77
2022/11/22 07:07:23;;;;;;;7.38;1.48;;;8.40;99.90;;;7.45;100.00;99526.63;4219868;28;20024;-77
2022/11/22 07:09:24;;;;;;;5.82;1.20;;;8.40;99.90;;;7.46;100.00;99530.06;4217940;28;20024;-77
2022/11/22 07:11:28;;;;;;;5.13;1.10;;;8.30;99.90;;;7.46;100.00;99528.28;4219696;28;20036;-77
2022/11/22 07:13:30;;;;;;;7.72;2.38;;;8.30;99.90;;;7.35;100.00;99525.19;4251899;27;20046;-77
2022/11/22 07:15:30;;;;;;;8.38;1.38;;;8.30;99.90;;;7.24;100.00;99526.31;4251840;27;20039;-77
2022/11/22 07:17:31;;;;;;;6.68;1.55;;;8.20;99.90;;;7.33;100.00;99527.13;4218242;28;20024;-76
2022/11/22 07:19:32;;;;;;;9.00;2.22;;;8.20;99.90;;;7.27;100.00;99533.84;4219309;28;20024;-77
2022/11/22 07:21:36;;;;;;;8.68;2.42;;;8.20;99.90;;;7.16;100.00;99521.06;4219229;28;20044;-76
2022/11/22 07:23:39;;;;;;;5.35;1.58;;;8.10;99.90;;;7.18;100.00;99521.72;4218354;28;20016;-77
2022/11/22 07:25:47;;;;;;;6.32;1.38;;;8.10;99.90;;;7.10;100.00;99537.47;4219465;28;20032;-77
2022/11/22 07:27:47;;;;;;;8.38;2.10;;;8.00;99.90;;;7.26;100.00;99542.69;4219059;28;20028;-77
2022/11/22 07:29:48;;;;;;;13.98;2.30;;;8.10;99.90;;;7.24;100.00;99539.41;4218961;28;20039;-77
2022/11/22 07:31:49;;;;;;;8.77;2.70;;;8.10;99.90;;;7.30;100.00;99537.94;4219337;28;20507;-76
2022/11/22 07:33:50;;;;;;;9.65;2.30;;;8.10;99.90;;;7.37;100.00;99534.50;4219324;28;20051;-76
2022/11/22 07:35:51;;;;;;;15.82;2.22;;;8.10;99.90;;;7.37;100.00;99545.00;4218111;28;20092;-77
2022/11/22 07:37:52;;;;;;;12.98;2.38;;;8.20;99.90;;;7.35;100.00;99546.16;4219172;28;20024;-77
2022/11/22 07:39:53;;;;;;;11.90;2.80;;;8.20;99.90;;;7.26;100.00;99547.94;4217874;28;20024;-76
2022/11/22 07:41:53;;;;;;;5.65;1.70;;;8.20;99.90;;;7.11;100.00;99547.78;4219237;28;20064;-77
2022/11/22 07:43:54;;;;;;;7.35;1.77;;;8.10;99.90;;;7.10;100.00;99564.50;4218969;28;20032;-77
2022/11/22 07:46:10;;;;;;;7.85;1.67;;;8.00;99.90;;;7.05;100.00;99550.22;4218627;28;20074;-77
2022/11/22 07:48:13;;;;;;;9.95;2.10;;;8.00;99.90;;;6.97;100.00;99560.69;4219155;28;20028;-77
2022/11/22 07:50:14;;;;;;;5.45;1.33;;;8.00;99.90;;;6.98;100.00;99555.31;4218128;28;20020;-76
2022/11/22 07:52:15;;;;;;;13.45;2.72;;;7.90;99.90;;;7.04;100.00;99564.31;4217835;28;20028;-77
2022/11/22 07:54:16;;;;;;;9.70;1.77;;;7.90;99.90;;;7.06;100.00;99570.22;4219134;28;20058;-77
2022/11/22 07:56:17;;;;;;;6.63;2.28;;;7.90;99.90;;;7.15;100.00;99561.38;4219190;28;20035;-77
2022/11/22 07:58:18;;;;;;;9.88;1.98;;;8.00;99.90;;;7.07;100.00;99556.97;4217596;28;20016;-77
2022/11/22 08:00:20;;;;;;;15.68;2.05;;;8.00;99.90;;;7.23;100.00;99558.75;4218848;28;20028;-77
2022/11/22 08:02:20;;;;;;;8.98;1.60;;;8.10;99.90;;;7.29;100.00;99568.59;4217835;28;20024;-77
2022/11/22 08:04:21;;;;;;;8.13;2.03;;;8.10;99.90;;;7.22;100.00;99572.88;4218961;28;20031;-77
2022/11/22 08:06:22;;;;;;;12.73;2.35;;;8.10;99.90;;;7.25;100.00;99567.31;4219232;28;20028;-77
2022/11/22 08:08:23;;;;;;;10.98;1.92;;;8.10;99.90;;;7.40;100.00;99567.47;4218725;28;20028;-77
2022/11/22 08:10:24;;;;;;;9.73;1.92;;;8.20;99.90;;;7.48;100.00;99581.41;4217602;28;20039;-77
2022/11/22 08:12:24;;;;;;;12.48;1.70;;;8.30;99.90;;;7.39;100.00;99574.50;4234425;28;20061;-77
2022/11/22 08:14:26;;;;;;;12.13;2.28;;;8.30;99.90;;;7.42;100.00;99575.97;4217438;28;20024;-77
2022/11/22 08:16:27;;;;;;;9.05;2.40;;;8.30;99.90;;;7.43;100.00;99575.84;4218607;28;20031;-77
2022/11/22 08:18:27;;;;;;;13.10;3.00;;;8.30;99.90;;;7.39;100.00;99579.75;4217698;28;20027;-77
2022/11/22 08:20:28;;;;;;;11.27;2.42;;;8.30;99.90;;;7.41;100.00;99585.66;4251221;27;20024;-77
2022/11/22 08:22:29;;;;;;;13.05;2.42;;;8.30;99.90;;;7.48;100.00;99577.94;4218888;28;20016;-77
2022/11/22 08:24:30;;;;;;;13.18;3.80;;;8.30;99.90;;;7.54;100.00;99591.22;4218702;28;20024;-77
2022/11/22 08:26:33;;;;;;;9.35;3.03;;;8.40;99.90;;;7.50;100.00;99589.91;4218668;28;20045;-77
2022/11/22 08:28:35;;;;;;;7.28;2.28;;;8.40;99.90;;;7.52;100.00;99598.47;4218674;28;20028;-77
2022/11/22 08:30:35;;;;;;;14.73;4.00;;;8.40;99.90;;;7.50;100.00;99586.47;4218602;28;20034;-77
2022/11/22 08:32:37;;;;;;;10.48;2.67;;;8.40;99.90;;;7.50;100.00;99602.22;4251346;27;20027;-77
2022/11/22 08:34:37;;;;;;;10.75;1.92;;;8.40;99.90;;;7.43;100.00;99591.56;4218616;28;20020;-76
2022/11/22 08:36:38;;;;;;;15.40;4.68;;;8.40;99.90;;;7.50;100.00;99602.22;4251415;27;20030;-77
2022/11/22 08:38:40;;;;;;;10.32;4.43;;;8.40;99.90;;;7.48;100.00;99602.38;4217000;28;20023;-77
2022/11/22 08:40:41;;;;;;;19.38;5.22;;;8.40;99.90;;;7.49;100.00;99605.84;4216971;28;20028;-77
2022/11/22 08:42:42;;;;;;;13.88;3.40;;;8.40;99.90;;;7.49;100.00;99604.03;4251045;28;20538;-77
2022/11/22 08:44:43;;;;;;;14.48;5.28;;;8.40;99.90;;;7.49;100.00;99596.16;4218327;28;20034;-77
2022/11/22 08:46:44;;;;;;;14.80;4.57;;;8.40;99.90;;;7.55;100.00;99607.81;4218502;28;20028;-77
2022/11/22 08:48:45;;;;;;;15.32;3.88;;;8.40;99.90;;;7.55;100.00;99605.19;4218417;28;20032;-77
2022/11/22 08:51:01;;;;;;;12.00;3.25;;;8.40;99.90;;;7.54;100.00;99596.47;4250940;28;20031;-77
2022/11/22 08:53:02;;;;;;;14.65;3.28;;;8.50;99.90;;;7.56;100.00;99593.69;4250257;28;20140;-77